sensor_id;sensor_type;location;lat;lon;timestamp;temperature;humidity
7844;DHT22;3967;48.702;9.326;2023-07-02T00:00:04;19.50;99.90
7844;DHT22;3967;48.702;9.326;2023-07-02T00:02:32;19.40;99.90
7844;DHT22;3967;48.702;9.326;2023-07-02T00:04:59;19.50;99.90
7844;DHT22;3967;48.702;9.326;2023-07-02T00:07:25;19.50;99.90
7844;DHT22;3967;48.702;9.326;2023-07-02T00:09:52;19.40;99.50
7844;DHT22;3967;48.702;9.326;2023-07-02T00:12:19;19.40;99.90
7844;DHT22;3967;48.702;9.326;2023-07-02T00:14:46;19.50;99.90
7844;DHT22;3967;48.702;9.326;2023-07-02T00:17:13;19.40;99.90
7844;DHT22;3967;48.702;9.326;2023-07-02T00:19:40;19.50;99.90
7844;DHT22;3967;48.702;9.326;2023-07-02T00:22:09;19.60;99.90
7844;DHT22;3967;48.702;9.326;2023-07-02T00:24:36;19.50;99.90
7844;DHT22;3967;48.702;9.326;2023-07-02T00:27:03;19.50;99.90
7844;DHT22;3967;48.702;9.326;2023-07-02T00:29:30;19.40;99.90
7844;DHT22;3967;48.702;9.326;2023-07-02T00:31:57;19.40;99.90
7844;DHT22;3967;48.702;9.326;2023-07-02T00:34:23;19.40;99.90
7844;DHT22;3967;48.702;9.326;2023-07-02T00:36:51;19.30;99.90
7844;DHT22;3967;48.702;9.326;2023-07-02T00:39:18;19.20;99.90
7844;DHT22;3967;48.702;9.326;2023-07-02T00:41:45;19.20;99.90
7844;DHT22;3967;48.702;9.326;2023-07-02T00:44:14;19.30;99.90
7844;DHT22;3967;48.702;9.326;2023-07-02T00:46:41;19.30;99.90
7844;DHT22;3967;48.702;9.326;2023-07-02T00:49:09;19.30;99.90
7844;DHT22;3967;48.702;9.326;2023-07-02T00:51:36;19.30;99.90
7844;DHT22;3967;48.702;9.326;2023-07-02T00:54:04;19.40;99.90
7844;DHT22;3967;48.702;9.326;2023-07-02T00:56:30;19.40;99.50
7844;DHT22;3967;48.702;9.326;2023-07-02T00:58:57;19.30;99.70
7844;DHT22;3967;48.702;9.326;2023-07-02T01:01:26;19.40;99.60
7844;DHT22;3967;48.702;9.326;2023-07-02T01:04:02;19.40;99.90
7844;DHT22;3967;48.702;9.326;2023-07-02T01:06:33;19.40;99.90
7844;DHT22;3967;48.702;9.326;2023-07-02T01:09:05;19.30;99.90
7844;DHT22;3967;48.702;9.326;2023-07-02T01:11:53;19.20;99.90
7844;DHT22;3967;48.702;9.326;2023-07-02T01:14:40;19.30;99.90
7844;DHT22;3967;48.702;9.326;2023-07-02T01:17:08;19.30;99.90
7844;DHT22;3967;48.702;9.326;2023-07-02T01:22:19;19.20;99.90
7844;DHT22;3967;48.702;9.326;2023-07-02T01:24:46;19.30;99.90
7844;DHT22;3967;48.702;9.326;2023-07-02T01:27:18;19.30;99.90
7844;DHT22;3967;48.702;9.326;2023-07-02T01:29:45;19.30;99.90
7844;DHT22;3967;48.702;9.326;2023-07-02T01:32:16;19.30;99.90
7844;DHT22;3967;48.702;9.326;2023-07-02T01:34:42;19.30;99.90
7844;DHT22;3967;48.702;9.326;2023-07-02T01:37:16;19.20;99.90
7844;DHT22;3967;48.702;9.326;2023-07-02T01:39:45;19.20;99.90
7844;DHT22;3967;48.702;9.326;2023-07-02T01:42:17;19.10;99.90
7844;DHT22;3967;48.702;9.326;2023-07-02T01:44:46;19.10;99.90
7844;DHT22;3967;48.702;9.326;2023-07-02T01:47:13;19.10;99.90
7844;DHT22;3967;48.702;9.326;2023-07-02T01:49:40;19.00;99.90
7844;DHT22;3967;48.702;9.326;2023-07-02T01:52:07;19.00;99.90
7844;DHT22;3967;48.702;9.326;2023-07-02T01:54:35;19.10;99.90
7844;DHT22;3967;48.702;9.326;2023-07-02T01:57:02;19.00;99.90
7844;DHT22;3967;48.702;9.326;2023-07-02T01:59:29;19.00;99.90
7844;DHT22;3967;48.702;9.326;2023-07-02T02:01:55;19.00;99.90
7844;DHT22;3967;48.702;9.326;2023-07-02T02:04:22;19.00;99.90
7844;DHT22;3967;48.702;9.326;2023-07-02T02:06:49;19.00;99.90
7844;DHT22;3967;48.702;9.326;2023-07-02T02:09:15;19.00;99.90
7844;DHT22;3967;48.702;9.326;2023-07-02T02:11:45;19.00;99.90
7844;DHT22;3967;48.702;9.326;2023-07-02T02:14:12;19.00;99.90
7844;DHT22;3967;48.702;9.326;2023-07-02T02:16:39;19.00;99.90
7844;DHT22;3967;48.702;9.326;2023-07-02T02:19:06;19.00;99.90
7844;DHT22;3967;48.702;9.326;2023-07-02T02:21:33;18.90;99.90
7844;DHT22;3967;48.702;9.326;2023-07-02T02:24:00;18.90;99.90
7844;DHT22;3967;48.702;9.326;2023-07-02T02:26:27;18.90;99.90
7844;DHT22;3967;48.702;9.326;2023-07-02T02:28:53;18.70;99.90
7844;DHT22;3967;48.702;9.326;2023-07-02T02:31:20;18.80;99.90
7844;DHT22;3967;48.702;9.326;2023-07-02T02:33:47;18.70;99.90
7844;DHT22;3967;48.702;9.326;2023-07-02T02:36:14;18.70;99.90
7844;DHT22;3967;48.702;9.326;2023-07-02T02:38:40;18.80;99.90
7844;DHT22;3967;48.702;9.326;2023-07-02T02:41:07;18.70;99.90
7844;DHT22;3967;48.702;9.326;2023-07-02T02:43:35;18.80;99.90
7844;DHT22;3967;48.702;9.326;2023-07-02T02:46:02;18.70;99.90
7844;DHT22;3967;48.702;9.326;2023-07-02T02:48:29;18.70;99.90
7844;DHT22;3967;48.702;9.326;2023-07-02T02:50:56;18.70;99.90
7844;DHT22;3967;48.702;9.326;2023-07-02T02:53:22;18.80;99.90
7844;DHT22;3967;48.702;9.326;2023-07-02T02:55:49;18.80;99.90
7844;DHT22;3967;48.702;9.326;2023-07-02T02:58:16;18.80;99.70
7844;DHT22;3967;48.702;9.326;2023-07-02T03:00:43;18.70;99.60
7844;DHT22;3967;48.702;9.326;2023-07-02T03:03:12;18.70;99.70
7844;DHT22;3967;48.702;9.326;2023-07-02T03:05:40;18.80;99.30
7844;DHT22;3967;48.702;9.326;2023-07-02T03:08:07;18.90;99.20
7844;DHT22;3967;48.702;9.326;2023-07-02T03:10:33;18.80;99.00
7844;DHT22;3967;48.702;9.326;2023-07-02T03:13:00;18.80;99.10
7844;DHT22;3967;48.702;9.326;2023-07-02T03:15:27;18.80;98.90
7844;DHT22;3967;48.702;9.326;2023-07-02T03:17:53;18.80;99.20
7844;DHT22;3967;48.702;9.326;2023-07-02T03:20:20;18.70;99.10
7844;DHT22;3967;48.702;9.326;2023-07-02T03:22:47;18.70;99.10
7844;DHT22;3967;48.702;9.326;2023-07-02T03:25:14;18.60;98.90
7844;DHT22;3967;48.702;9.326;2023-07-02T03:27:41;18.50;99.10
7844;DHT22;3967;48.702;9.326;2023-07-02T03:30:08;18.50;99.10
7844;DHT22;3967;48.702;9.326;2023-07-02T03:32:35;18.50;99.30
7844;DHT22;3967;48.702;9.326;2023-07-02T03:35:02;18.40;99.80
7844;DHT22;3967;48.702;9.326;2023-07-02T03:37:29;18.20;99.90
7844;DHT22;3967;48.702;9.326;2023-07-02T03:39:55;18.20;99.90
7844;DHT22;3967;48.702;9.326;2023-07-02T03:42:22;18.20;99.90
7844;DHT22;3967;48.702;9.326;2023-07-02T03:44:49;18.00;99.90
7844;DHT22;3967;48.702;9.326;2023-07-02T03:47:15;18.10;99.90
7844;DHT22;3967;48.702;9.326;2023-07-02T03:49:42;17.80;99.90
7844;DHT22;3967;48.702;9.326;2023-07-02T03:52:09;17.50;99.90
7844;DHT22;3967;48.702;9.326;2023-07-02T03:54:39;17.50;99.90
7844;DHT22;3967;48.702;9.326;2023-07-02T03:57:05;17.60;99.90
7844;DHT22;3967;48.702;9.326;2023-07-02T03:59:32;17.50;99.90
7844;DHT22;3967;48.702;9.326;2023-07-02T04:01:59;17.40;99.90
7844;DHT22;3967;48.702;9.326;2023-07-02T04:04:26;17.30;99.90
7844;DHT22;3967;48.702;9.326;2023-07-02T04:06:53;17.10;99.90
7844;DHT22;3967;48.702;9.326;2023-07-02T04:09:19;17.00;99.90
7844;DHT22;3967;48.702;9.326;2023-07-02T04:11:47;16.90;99.90
7844;DHT22;3967;48.702;9.326;2023-07-02T04:14:14;17.10;99.90
7844;DHT22;3967;48.702;9.326;2023-07-02T04:16:43;17.30;99.90
7844;DHT22;3967;48.702;9.326;2023-07-02T04:19:11;17.30;99.90
7844;DHT22;3967;48.702;9.326;2023-07-02T04:21:38;17.40;99.90
7844;DHT22;3967;48.702;9.326;2023-07-02T04:24:05;17.40;99.90
7844;DHT22;3967;48.702;9.326;2023-07-02T04:26:32;17.20;99.90
7844;DHT22;3967;48.702;9.326;2023-07-02T04:29:19;17.10;99.90
7844;DHT22;3967;48.702;9.326;2023-07-02T04:31:46;17.40;99.90
7844;DHT22;3967;48.702;9.326;2023-07-02T04:34:13;17.30;99.90
7844;DHT22;3967;48.702;9.326;2023-07-02T04:36:40;17.20;99.90
7844;DHT22;3967;48.702;9.326;2023-07-02T04:39:08;17.50;99.90
7844;DHT22;3967;48.702;9.326;2023-07-02T04:41:35;17.30;99.90
7844;DHT22;3967;48.702;9.326;2023-07-02T04:44:02;17.30;99.90
7844;DHT22;3967;48.702;9.326;2023-07-02T04:46:29;17.50;99.90
7844;DHT22;3967;48.702;9.326;2023-07-02T04:48:56;17.50;99.90
7844;DHT22;3967;48.702;9.326;2023-07-02T04:51:23;17.50;99.90
7844;DHT22;3967;48.702;9.326;2023-07-02T04:53:50;17.40;99.90
7844;DHT22;3967;48.702;9.326;2023-07-02T04:56:16;17.50;99.90
7844;DHT22;3967;48.702;9.326;2023-07-02T04:58:43;17.60;99.90
7844;DHT22;3967;48.702;9.326;2023-07-02T05:01:10;17.70;99.90
7844;DHT22;3967;48.702;9.326;2023-07-02T05:03:37;17.70;99.90
7844;DHT22;3967;48.702;9.326;2023-07-02T05:06:05;17.80;99.90
7844;DHT22;3967;48.702;9.326;2023-07-02T05:08:31;17.70;99.90
7844;DHT22;3967;48.702;9.326;2023-07-02T05:10:58;17.70;99.90
7844;DHT22;3967;48.702;9.326;2023-07-02T05:13:25;17.80;99.90
7844;DHT22;3967;48.702;9.326;2023-07-02T05:15:51;17.80;99.90
7844;DHT22;3967;48.702;9.326;2023-07-02T05:18:18;17.70;99.90
7844;DHT22;3967;48.702;9.326;2023-07-02T05:20:45;17.80;99.90
7844;DHT22;3967;48.702;9.326;2023-07-02T05:23:12;17.90;99.90
7844;DHT22;3967;48.702;9.326;2023-07-02T05:25:38;17.80;99.90
7844;DHT22;3967;48.702;9.326;2023-07-02T05:28:05;17.70;99.90
7844;DHT22;3967;48.702;9.326;2023-07-02T05:30:32;17.90;99.90
7844;DHT22;3967;48.702;9.326;2023-07-02T05:32:59;17.90;99.90
7844;DHT22;3967;48.702;9.326;2023-07-02T05:35:25;17.90;99.90
7844;DHT22;3967;48.702;9.326;2023-07-02T05:37:52;17.90;99.90
7844;DHT22;3967;48.702;9.326;2023-07-02T05:40:19;17.90;99.90
7844;DHT22;3967;48.702;9.326;2023-07-02T05:42:46;18.10;99.90
7844;DHT22;3967;48.702;9.326;2023-07-02T05:45:12;18.20;99.90
7844;DHT22;3967;48.702;9.326;2023-07-02T05:47:39;18.30;99.90
7844;DHT22;3967;48.702;9.326;2023-07-02T05:50:07;18.30;99.90
7844;DHT22;3967;48.702;9.326;2023-07-02T05:52:34;18.30;99.90
7844;DHT22;3967;48.702;9.326;2023-07-02T05:55:01;18.30;99.90
7844;DHT22;3967;48.702;9.326;2023-07-02T05:57:28;18.40;99.90
7844;DHT22;3967;48.702;9.326;2023-07-02T05:59:54;18.40;99.90
7844;DHT22;3967;48.702;9.326;2023-07-02T06:02:21;18.60;99.90
7844;DHT22;3967;48.702;9.326;2023-07-02T06:04:48;18.80;99.90
7844;DHT22;3967;48.702;9.326;2023-07-02T06:07:15;18.60;99.90
7844;DHT22;3967;48.702;9.326;2023-07-02T06:09:42;18.80;99.90
7844;DHT22;3967;48.702;9.326;2023-07-02T06:12:09;18.90;99.90
7844;DHT22;3967;48.702;9.326;2023-07-02T06:14:35;19.20;99.70
7844;DHT22;3967;48.702;9.326;2023-07-02T06:17:02;19.60;97.30
7844;DHT22;3967;48.702;9.326;2023-07-02T06:19:32;19.70;95.70
7844;DHT22;3967;48.702;9.326;2023-07-02T06:21:59;19.80;94.20
7844;DHT22;3967;48.702;9.326;2023-07-02T06:24:26;20.00;93.30
7844;DHT22;3967;48.702;9.326;2023-07-02T06:26:53;20.00;93.80
7844;DHT22;3967;48.702;9.326;2023-07-02T06:29:21;20.10;93.60
7844;DHT22;3967;48.702;9.326;2023-07-02T06:31:47;20.40;91.70
7844;DHT22;3967;48.702;9.326;2023-07-02T06:34:14;20.50;91.30
7844;DHT22;3967;48.702;9.326;2023-07-02T06:36:42;20.70;91.40
7844;DHT22;3967;48.702;9.326;2023-07-02T06:39:09;20.80;90.90
7844;DHT22;3967;48.702;9.326;2023-07-02T06:41:36;21.10;90.30
7844;DHT22;3967;48.702;9.326;2023-07-02T06:44:03;21.00;90.30
7844;DHT22;3967;48.702;9.326;2023-07-02T06:46:30;21.60;90.30
7844;DHT22;3967;48.702;9.326;2023-07-02T06:48:57;21.60;88.70
7844;DHT22;3967;48.702;9.326;2023-07-02T06:51:24;21.80;87.40
7844;DHT22;3967;48.702;9.326;2023-07-02T06:53:52;21.80;88.70
7844;DHT22;3967;48.702;9.326;2023-07-02T06:56:19;21.70;86.20
7844;DHT22;3967;48.702;9.326;2023-07-02T06:58:46;21.30;85.50
7844;DHT22;3967;48.702;9.326;2023-07-02T07:01:12;21.70;84.70
7844;DHT22;3967;48.702;9.326;2023-07-02T07:03:39;21.80;84.70
7844;DHT22;3967;48.702;9.326;2023-07-02T07:06:06;21.90;83.70
7844;DHT22;3967;48.702;9.326;2023-07-02T07:08:33;21.90;84.00
7844;DHT22;3967;48.702;9.326;2023-07-02T07:10:59;21.50;83.30
7844;DHT22;3967;48.702;9.326;2023-07-02T07:13:26;21.50;83.90
7844;DHT22;3967;48.702;9.326;2023-07-02T07:15:53;21.20;84.30
7844;DHT22;3967;48.702;9.326;2023-07-02T07:18:20;21.20;84.60
7844;DHT22;3967;48.702;9.326;2023-07-02T07:20:47;21.30;84.30
7844;DHT22;3967;48.702;9.326;2023-07-02T07:23:15;21.30;83.10
7844;DHT22;3967;48.702;9.326;2023-07-02T07:25:43;21.10;82.80
7844;DHT22;3967;48.702;9.326;2023-07-02T07:28:10;21.50;82.60
7844;DHT22;3967;48.702;9.326;2023-07-02T07:30:42;22.00;81.50
7844;DHT22;3967;48.702;9.326;2023-07-02T07:33:10;22.30;79.50
7844;DHT22;3967;48.702;9.326;2023-07-02T07:35:37;22.50;79.70
7844;DHT22;3967;48.702;9.326;2023-07-02T07:38:03;22.80;78.50
7844;DHT22;3967;48.702;9.326;2023-07-02T07:40:30;22.80;78.20
7844;DHT22;3967;48.702;9.326;2023-07-02T07:42:57;22.50;78.00
7844;DHT22;3967;48.702;9.326;2023-07-02T07:45:24;22.60;78.00
7844;DHT22;3967;48.702;9.326;2023-07-02T07:47:51;22.80;76.90
7844;DHT22;3967;48.702;9.326;2023-07-02T07:50:18;22.80;76.20
7844;DHT22;3967;48.702;9.326;2023-07-02T07:52:44;22.90;76.50
7844;DHT22;3967;48.702;9.326;2023-07-02T07:55:11;22.50;76.50
7844;DHT22;3967;48.702;9.326;2023-07-02T07:57:38;22.50;76.80
7844;DHT22;3967;48.702;9.326;2023-07-02T08:00:06;22.60;76.30
7844;DHT22;3967;48.702;9.326;2023-07-02T08:02:39;22.70;74.10
7844;DHT22;3967;48.702;9.326;2023-07-02T08:05:07;22.40;73.80
7844;DHT22;3967;48.702;9.326;2023-07-02T08:07:33;22.50;75.00
7844;DHT22;3967;48.702;9.326;2023-07-02T08:10:00;22.60;75.40
7844;DHT22;3967;48.702;9.326;2023-07-02T08:12:29;22.60;75.40
7844;DHT22;3967;48.702;9.326;2023-07-02T08:14:56;23.00;75.20
7844;DHT22;3967;48.702;9.326;2023-07-02T08:17:23;22.80;74.30
7844;DHT22;3967;48.702;9.326;2023-07-02T08:19:50;22.70;73.90
7844;DHT22;3967;48.702;9.326;2023-07-02T08:22:17;22.90;74.10
7844;DHT22;3967;48.702;9.326;2023-07-02T08:24:44;23.20;73.00
7844;DHT22;3967;48.702;9.326;2023-07-02T08:27:10;23.70;72.30
7844;DHT22;3967;48.702;9.326;2023-07-02T08:29:40;23.60;70.20
7844;DHT22;3967;48.702;9.326;2023-07-02T08:32:07;23.20;71.00
7844;DHT22;3967;48.702;9.326;2023-07-02T08:34:34;23.10;70.80
7844;DHT22;3967;48.702;9.326;2023-07-02T08:37:01;23.30;71.50
7844;DHT22;3967;48.702;9.326;2023-07-02T08:39:28;23.30;70.00
7844;DHT22;3967;48.702;9.326;2023-07-02T08:41:55;23.10;70.60
7844;DHT22;3967;48.702;9.326;2023-07-02T08:44:22;23.00;69.30
7844;DHT22;3967;48.702;9.326;2023-07-02T08:46:49;23.00;69.30
7844;DHT22;3967;48.702;9.326;2023-07-02T08:49:18;23.10;69.70
7844;DHT22;3967;48.702;9.326;2023-07-02T08:51:46;23.10;69.20
7844;DHT22;3967;48.702;9.326;2023-07-02T08:54:13;23.40;68.50
7844;DHT22;3967;48.702;9.326;2023-07-02T08:56:41;23.40;68.10
7844;DHT22;3967;48.702;9.326;2023-07-02T08:59:08;23.30;67.30
7844;DHT22;3967;48.702;9.326;2023-07-02T09:01:49;23.20;67.20
7844;DHT22;3967;48.702;9.326;2023-07-02T09:04:25;23.30;67.30
7844;DHT22;3967;48.702;9.326;2023-07-02T09:07:08;23.10;68.10
7844;DHT22;3967;48.702;9.326;2023-07-02T09:09:49;23.20;69.00
7844;DHT22;3967;48.702;9.326;2023-07-02T09:12:26;23.70;68.00
7844;DHT22;3967;48.702;9.326;2023-07-02T09:15:05;24.30;66.50
7844;DHT22;3967;48.702;9.326;2023-07-02T09:17:37;24.50;64.80
7844;DHT22;3967;48.702;9.326;2023-07-02T09:20:05;24.60;63.40
7844;DHT22;3967;48.702;9.326;2023-07-02T09:22:36;25.00;63.40
7844;DHT22;3967;48.702;9.326;2023-07-02T09:25:03;25.10;62.00
7844;DHT22;3967;48.702;9.326;2023-07-02T09:27:40;24.90;62.60
7844;DHT22;3967;48.702;9.326;2023-07-02T09:30:09;25.20;62.50
7844;DHT22;3967;48.702;9.326;2023-07-02T09:32:36;25.50;62.70
7844;DHT22;3967;48.702;9.326;2023-07-02T09:35:04;25.60;60.90
7844;DHT22;3967;48.702;9.326;2023-07-02T09:37:32;25.80;61.70
7844;DHT22;3967;48.702;9.326;2023-07-02T09:39:59;25.70;60.50
7844;DHT22;3967;48.702;9.326;2023-07-02T09:42:28;25.70;60.00
7844;DHT22;3967;48.702;9.326;2023-07-02T09:44:55;25.80;60.20
7844;DHT22;3967;48.702;9.326;2023-07-02T09:47:25;25.70;59.40
7844;DHT22;3967;48.702;9.326;2023-07-02T09:49:55;25.50;59.10
7844;DHT22;3967;48.702;9.326;2023-07-02T09:52:23;25.80;59.20
7844;DHT22;3967;48.702;9.326;2023-07-02T09:54:50;26.00;58.50
7844;DHT22;3967;48.702;9.326;2023-07-02T09:57:16;26.00;58.40
7844;DHT22;3967;48.702;9.326;2023-07-02T09:59:43;25.90;58.50
7844;DHT22;3967;48.702;9.326;2023-07-02T10:02:10;25.50;57.80
7844;DHT22;3967;48.702;9.326;2023-07-02T10:04:45;25.70;58.10
7844;DHT22;3967;48.702;9.326;2023-07-02T10:07:13;26.10;57.70
7844;DHT22;3967;48.702;9.326;2023-07-02T10:09:51;26.30;57.80
7844;DHT22;3967;48.702;9.326;2023-07-02T10:12:26;26.60;57.90
7844;DHT22;3967;48.702;9.326;2023-07-02T10:14:54;26.30;56.60
7844;DHT22;3967;48.702;9.326;2023-07-02T10:19:53;26.40;57.20
7844;DHT22;3967;48.702;9.326;2023-07-02T10:22:20;26.40;57.10
7844;DHT22;3967;48.702;9.326;2023-07-02T10:25:05;26.30;56.50
7844;DHT22;3967;48.702;9.326;2023-07-02T10:27:36;26.20;56.70
7844;DHT22;3967;48.702;9.326;2023-07-02T10:30:05;26.40;57.30
7844;DHT22;3967;48.702;9.326;2023-07-02T10:32:33;26.60;56.00
7844;DHT22;3967;48.702;9.326;2023-07-02T10:35:02;26.30;54.70
7844;DHT22;3967;48.702;9.326;2023-07-02T10:37:37;26.50;54.10
7844;DHT22;3967;48.702;9.326;2023-07-02T10:40:06;26.60;51.60
7844;DHT22;3967;48.702;9.326;2023-07-02T10:42:33;26.60;51.60
7844;DHT22;3967;48.702;9.326;2023-07-02T10:45:10;26.50;51.70
7844;DHT22;3967;48.702;9.326;2023-07-02T10:47:40;26.40;51.50
7844;DHT22;3967;48.702;9.326;2023-07-02T10:50:21;26.40;51.50
7844;DHT22;3967;48.702;9.326;2023-07-02T10:52:49;26.50;51.40
7844;DHT22;3967;48.702;9.326;2023-07-02T10:55:25;26.40;50.30
7844;DHT22;3967;48.702;9.326;2023-07-02T10:58:03;26.30;51.20
7844;DHT22;3967;48.702;9.326;2023-07-02T11:00:30;26.40;51.60
7844;DHT22;3967;48.702;9.326;2023-07-02T11:02:58;27.00;51.50
7844;DHT22;3967;48.702;9.326;2023-07-02T11:05:25;26.70;50.90
7844;DHT22;3967;48.702;9.326;2023-07-02T11:08:05;26.70;50.30
7844;DHT22;3967;48.702;9.326;2023-07-02T11:10:33;26.90;49.90
7844;DHT22;3967;48.702;9.326;2023-07-02T11:13:15;26.90;49.50
7844;DHT22;3967;48.702;9.326;2023-07-02T11:15:42;26.80;49.70
7844;DHT22;3967;48.702;9.326;2023-07-02T11:18:16;26.90;49.80
7844;DHT22;3967;48.702;9.326;2023-07-02T11:20:45;26.90;49.50
7844;DHT22;3967;48.702;9.326;2023-07-02T11:23:21;26.90;50.10
7844;DHT22;3967;48.702;9.326;2023-07-02T11:25:59;27.00;49.70
7844;DHT22;3967;48.702;9.326;2023-07-02T11:28:28;27.20;48.10
7844;DHT22;3967;48.702;9.326;2023-07-02T11:30:55;27.20;47.60
7844;DHT22;3967;48.702;9.326;2023-07-02T11:33:39;26.90;47.70
7844;DHT22;3967;48.702;9.326;2023-07-02T11:36:07;27.40;48.10
7844;DHT22;3967;48.702;9.326;2023-07-02T11:38:36;27.30;47.80
7844;DHT22;3967;48.702;9.326;2023-07-02T11:41:04;27.20;46.70
7844;DHT22;3967;48.702;9.326;2023-07-02T11:43:30;27.50;49.00
7844;DHT22;3967;48.702;9.326;2023-07-02T11:45:57;27.80;46.60
7844;DHT22;3967;48.702;9.326;2023-07-02T11:48:24;27.80;47.30
7844;DHT22;3967;48.702;9.326;2023-07-02T11:50:51;27.90;46.50
7844;DHT22;3967;48.702;9.326;2023-07-02T11:53:17;27.80;46.70
7844;DHT22;3967;48.702;9.326;2023-07-02T11:55:44;27.60;46.30
7844;DHT22;3967;48.702;9.326;2023-07-02T11:58:11;27.60;45.30
7844;DHT22;3967;48.702;9.326;2023-07-02T12:00:38;27.80;45.40
7844;DHT22;3967;48.702;9.326;2023-07-02T12:03:05;27.70;45.90
7844;DHT22;3967;48.702;9.326;2023-07-02T12:05:32;27.80;45.40
7844;DHT22;3967;48.702;9.326;2023-07-02T12:07:59;27.40;44.10
7844;DHT22;3967;48.702;9.326;2023-07-02T12:10:25;27.50;45.30
7844;DHT22;3967;48.702;9.326;2023-07-02T12:12:52;27.60;45.30
7844;DHT22;3967;48.702;9.326;2023-07-02T12:15:28;27.70;45.10
7844;DHT22;3967;48.702;9.326;2023-07-02T12:17:57;28.00;45.60
7844;DHT22;3967;48.702;9.326;2023-07-02T12:20:24;27.70;44.80
7844;DHT22;3967;48.702;9.326;2023-07-02T12:22:50;27.80;44.70
7844;DHT22;3967;48.702;9.326;2023-07-02T12:25:17;28.00;44.50
7844;DHT22;3967;48.702;9.326;2023-07-02T12:27:44;27.60;45.30
7844;DHT22;3967;48.702;9.326;2023-07-02T12:30:11;27.70;45.50
7844;DHT22;3967;48.702;9.326;2023-07-02T12:32:38;27.90;46.40
7844;DHT22;3967;48.702;9.326;2023-07-02T12:35:05;27.90;45.20
7844;DHT22;3967;48.702;9.326;2023-07-02T12:37:32;27.80;45.50
7844;DHT22;3967;48.702;9.326;2023-07-02T12:39:59;27.80;45.50
7844;DHT22;3967;48.702;9.326;2023-07-02T12:42:26;27.50;43.50
7844;DHT22;3967;48.702;9.326;2023-07-02T12:44:53;27.70;44.70
7844;DHT22;3967;48.702;9.326;2023-07-02T12:47:19;28.10;44.40
7844;DHT22;3967;48.702;9.326;2023-07-02T12:49:47;28.10;43.50
7844;DHT22;3967;48.702;9.326;2023-07-02T12:52:13;27.80;43.60
7844;DHT22;3967;48.702;9.326;2023-07-02T12:54:40;27.60;43.70
7844;DHT22;3967;48.702;9.326;2023-07-02T12:57:07;27.90;44.30
7844;DHT22;3967;48.702;9.326;2023-07-02T12:59:35;28.00;44.20
7844;DHT22;3967;48.702;9.326;2023-07-02T13:02:03;27.90;43.10
7844;DHT22;3967;48.702;9.326;2023-07-02T13:04:30;27.80;42.80
7844;DHT22;3967;48.702;9.326;2023-07-02T13:06:57;27.60;43.50
7844;DHT22;3967;48.702;9.326;2023-07-02T13:09:24;28.00;43.90
7844;DHT22;3967;48.702;9.326;2023-07-02T13:11:51;28.00;42.90
7844;DHT22;3967;48.702;9.326;2023-07-02T13:14:18;28.10;42.60
7844;DHT22;3967;48.702;9.326;2023-07-02T13:16:45;28.00;41.40
7844;DHT22;3967;48.702;9.326;2023-07-02T13:19:12;28.20;41.30
7844;DHT22;3967;48.702;9.326;2023-07-02T13:21:39;28.20;41.30
7844;DHT22;3967;48.702;9.326;2023-07-02T13:24:06;28.30;41.70
7844;DHT22;3967;48.702;9.326;2023-07-02T13:26:33;28.30;41.50
7844;DHT22;3967;48.702;9.326;2023-07-02T13:28:59;28.20;41.20
7844;DHT22;3967;48.702;9.326;2023-07-02T13:31:26;28.40;42.20
7844;DHT22;3967;48.702;9.326;2023-07-02T13:33:53;28.20;41.70
7844;DHT22;3967;48.702;9.326;2023-07-02T13:36:20;28.40;41.30
7844;DHT22;3967;48.702;9.326;2023-07-02T13:38:46;28.60;41.30
7844;DHT22;3967;48.702;9.326;2023-07-02T13:41:13;28.50;41.10
7844;DHT22;3967;48.702;9.326;2023-07-02T13:43:40;28.60;40.30
7844;DHT22;3967;48.702;9.326;2023-07-02T13:46:07;28.80;40.50
7844;DHT22;3967;48.702;9.326;2023-07-02T13:48:34;28.60;40.70
7844;DHT22;3967;48.702;9.326;2023-07-02T13:51:01;28.50;40.20
7844;DHT22;3967;48.702;9.326;2023-07-02T13:53:28;28.40;40.50
7844;DHT22;3967;48.702;9.326;2023-07-02T13:55:55;28.40;39.50
7844;DHT22;3967;48.702;9.326;2023-07-02T13:58:22;28.20;39.90
7844;DHT22;3967;48.702;9.326;2023-07-02T14:00:56;28.30;39.60
7844;DHT22;3967;48.702;9.326;2023-07-02T14:03:23;28.40;39.30
7844;DHT22;3967;48.702;9.326;2023-07-02T14:05:50;28.50;39.70
7844;DHT22;3967;48.702;9.326;2023-07-02T14:08:18;28.50;40.50
7844;DHT22;3967;48.702;9.326;2023-07-02T14:10:44;28.50;39.60
7844;DHT22;3967;48.702;9.326;2023-07-02T14:13:11;28.50;39.00
7844;DHT22;3967;48.702;9.326;2023-07-02T14:15:38;28.50;38.90
7844;DHT22;3967;48.702;9.326;2023-07-02T14:18:05;28.40;38.80
7844;DHT22;3967;48.702;9.326;2023-07-02T14:20:32;28.40;39.80
7844;DHT22;3967;48.702;9.326;2023-07-02T14:22:59;28.20;39.30
7844;DHT22;3967;48.702;9.326;2023-07-02T14:25:26;28.50;40.10
7844;DHT22;3967;48.702;9.326;2023-07-02T14:28:07;28.30;39.40
7844;DHT22;3967;48.702;9.326;2023-07-02T14:30:34;28.40;40.00
7844;DHT22;3967;48.702;9.326;2023-07-02T14:33:00;28.20;39.30
7844;DHT22;3967;48.702;9.326;2023-07-02T14:35:27;28.10;39.70
7844;DHT22;3967;48.702;9.326;2023-07-02T14:37:56;28.20;39.60
7844;DHT22;3967;48.702;9.326;2023-07-02T14:40:23;28.20;40.00
7844;DHT22;3967;48.702;9.326;2023-07-02T14:42:50;28.30;40.60
7844;DHT22;3967;48.702;9.326;2023-07-02T14:45:17;28.40;40.00
7844;DHT22;3967;48.702;9.326;2023-07-02T14:47:44;28.20;39.90
7844;DHT22;3967;48.702;9.326;2023-07-02T14:50:11;28.30;39.70
7844;DHT22;3967;48.702;9.326;2023-07-02T14:52:38;28.20;40.30
7844;DHT22;3967;48.702;9.326;2023-07-02T14:55:05;28.00;40.20
7844;DHT22;3967;48.702;9.326;2023-07-02T14:57:32;28.20;40.20
7844;DHT22;3967;48.702;9.326;2023-07-02T14:59:58;28.10;40.90
7844;DHT22;3967;48.702;9.326;2023-07-02T15:02:25;28.10;40.50
7844;DHT22;3967;48.702;9.326;2023-07-02T15:04:52;28.10;40.30
7844;DHT22;3967;48.702;9.326;2023-07-02T15:07:19;28.10;41.20
7844;DHT22;3967;48.702;9.326;2023-07-02T15:09:47;28.30;40.40
7844;DHT22;3967;48.702;9.326;2023-07-02T15:12:13;28.30;40.80
7844;DHT22;3967;48.702;9.326;2023-07-02T15:14:40;28.60;41.40
7844;DHT22;3967;48.702;9.326;2023-07-02T15:17:07;28.50;41.20
7844;DHT22;3967;48.702;9.326;2023-07-02T15:19:34;28.60;41.90
7844;DHT22;3967;48.702;9.326;2023-07-02T15:22:01;28.50;40.70
7844;DHT22;3967;48.702;9.326;2023-07-02T15:24:27;28.40;41.00
7844;DHT22;3967;48.702;9.326;2023-07-02T15:26:54;28.50;41.00
7844;DHT22;3967;48.702;9.326;2023-07-02T15:29:21;28.10;40.90
7844;DHT22;3967;48.702;9.326;2023-07-02T15:31:48;27.80;41.40
7844;DHT22;3967;48.702;9.326;2023-07-02T15:34:15;28.00;42.50
7844;DHT22;3967;48.702;9.326;2023-07-02T15:36:45;28.00;42.10
7844;DHT22;3967;48.702;9.326;2023-07-02T15:39:12;28.10;42.10
7844;DHT22;3967;48.702;9.326;2023-07-02T15:41:39;28.30;42.20
7844;DHT22;3967;48.702;9.326;2023-07-02T15:44:08;28.40;42.30
7844;DHT22;3967;48.702;9.326;2023-07-02T15:46:35;28.40;41.40
7844;DHT22;3967;48.702;9.326;2023-07-02T15:49:02;28.30;41.50
7844;DHT22;3967;48.702;9.326;2023-07-02T15:51:29;28.30;41.70
7844;DHT22;3967;48.702;9.326;2023-07-02T15:54:03;28.50;42.20
7844;DHT22;3967;48.702;9.326;2023-07-02T15:56:33;28.60;42.30
7844;DHT22;3967;48.702;9.326;2023-07-02T15:59:02;28.30;42.10
7844;DHT22;3967;48.702;9.326;2023-07-02T16:01:29;28.30;41.90
7844;DHT22;3967;48.702;9.326;2023-07-02T16:04:01;28.40;42.40
7844;DHT22;3967;48.702;9.326;2023-07-02T16:06:28;28.20;42.00
7844;DHT22;3967;48.702;9.326;2023-07-02T16:09:03;28.40;42.40
7844;DHT22;3967;48.702;9.326;2023-07-02T16:11:31;28.20;41.60